createdAt,value
2019-01-23T00:01:29.100Z,-4.50
2019-01-23T00:03:57.937Z,-4.50
2019-01-23T00:06:26.702Z,-4.50
2019-01-23T00:08:55.491Z,-4.50
2019-01-23T00:11:24.361Z,-4.50
2019-01-23T00:13:53.174Z,-4.50
2019-01-23T00:16:21.950Z,-4.50
2019-01-23T00:18:50.704Z,-4.50
2019-01-23T00:21:19.459Z,-4.50
2019-01-23T00:23:48.219Z,-4.50
2019-01-23T00:26:17.015Z,-4.50
2019-01-23T00:28:45.799Z,-4.60
2019-01-23T00:31:14.652Z,-4.50
2019-01-23T00:33:44.235Z,-4.60
2019-01-23T00:36:12.978Z,-4.50
2019-01-23T00:38:41.751Z,-4.50
2019-01-23T00:41:10.598Z,-4.50
2019-01-23T00:43:39.394Z,-4.50
2019-01-23T00:46:08.180Z,-4.50
2019-01-23T00:48:37.011Z,-4.50
2019-01-23T00:51:06.098Z,-4.50
2019-01-23T00:53:34.896Z,-4.50
2019-01-23T00:56:04.386Z,-4.50
2019-01-23T00:58:33.188Z,-4.50
2019-01-23T01:01:02.199Z,-4.50
2019-01-23T01:03:31.295Z,-4.50
2019-01-23T01:06:00.183Z,-4.50
2019-01-23T01:08:29.014Z,-4.50
2019-01-23T01:10:57.957Z,-4.60
2019-01-23T01:13:26.847Z,-4.60
2019-01-23T01:15:55.752Z,-4.60
2019-01-23T01:18:25.065Z,-4.60
2019-01-23T01:20:54.057Z,-4.60
2019-01-23T01:23:22.890Z,-4.50
2019-01-23T01:25:51.737Z,-4.60
2019-01-23T01:28:20.574Z,-4.60
2019-01-23T01:30:49.366Z,-4.60
2019-01-23T01:33:18.142Z,-4.60
2019-01-23T01:35:46.885Z,-4.70
2019-01-23T01:38:15.691Z,-4.70
2019-01-23T01:40:44.689Z,-4.60
2019-01-23T01:43:13.765Z,-4.60
2019-01-23T01:45:42.618Z,-4.60
2019-01-23T01:48:11.419Z,-4.70
2019-01-23T01:50:40.174Z,-4.70
2019-01-23T01:53:09.312Z,-4.80
2019-01-23T01:55:38.178Z,-4.70
2019-01-23T01:58:10.246Z,-4.80
2019-01-23T02:00:37.742Z,-4.80
2019-01-23T02:03:06.594Z,-4.80
2019-01-23T02:05:35.794Z,-4.90
2019-01-23T02:08:04.939Z,-4.80
2019-01-23T02:10:33.828Z,-4.90
2019-01-23T02:13:02.603Z,-4.90
2019-01-23T02:15:31.499Z,-4.90
2019-01-23T02:18:00.743Z,-4.90
2019-01-23T02:20:29.771Z,-5.00
2019-01-23T02:22:58.555Z,-5.10
2019-01-23T02:25:27.448Z,-5.00
2019-01-23T02:27:56.222Z,-5.00
2019-01-23T02:30:25.568Z,-5.00
2019-01-23T02:32:54.492Z,-5.00
2019-01-23T02:35:23.559Z,-5.10
2019-01-23T02:37:52.307Z,-5.20
2019-01-23T02:40:24.314Z,-5.10
2019-01-23T02:42:53.695Z,-5.10
2019-01-23T02:45:23.154Z,-5.20
2019-01-23T02:47:52.746Z,-5.20
2019-01-23T02:50:21.842Z,-5.20
2019-01-23T02:52:50.652Z,-5.20
2019-01-23T02:55:19.794Z,-5.20
2019-01-23T02:57:48.582Z,-5.30
2019-01-23T03:00:19.002Z,-5.30
2019-01-23T03:02:48.705Z,-5.30
2019-01-23T03:05:18.747Z,-5.30
2019-01-23T03:07:47.506Z,-5.30
2019-01-23T03:10:18.420Z,-5.30
2019-01-23T03:12:47.711Z,-5.40
2019-01-23T03:15:17.240Z,-5.30
2019-01-23T03:17:46.068Z,-5.40
2019-01-23T03:20:16.287Z,-5.40
2019-01-23T03:22:45.227Z,-5.30
2019-01-23T03:25:14.378Z,-5.30
2019-01-23T03:27:43.575Z,-5.30
2019-01-23T03:30:20.485Z,-5.30
2019-01-23T03:32:49.533Z,-5.40
2019-01-23T03:35:18.940Z,-5.40
2019-01-23T03:37:47.733Z,-5.40
2019-01-23T03:40:18.411Z,-5.40
2019-01-23T03:42:47.276Z,-5.50
2019-01-23T03:45:16.358Z,-5.50
2019-01-23T03:47:45.406Z,-5.50
2019-01-23T03:50:15.827Z,-5.50
2019-01-23T03:52:44.608Z,-5.60
2019-01-23T03:55:13.842Z,-5.60
2019-01-23T03:57:43.072Z,-5.60
2019-01-23T04:00:14.172Z,-5.60
2019-01-23T04:02:43.127Z,-5.60
2019-01-23T04:05:12.535Z,-5.60
2019-01-23T04:07:41.349Z,-5.60
2019-01-23T04:10:12.270Z,-5.60
2019-01-23T04:12:41.072Z,-5.60
2019-01-23T04:15:10.784Z,-5.60
2019-01-23T04:17:40.963Z,-5.60
2019-01-23T04:20:13.010Z,-5.70
2019-01-23T04:22:43.347Z,-5.70
2019-01-23T04:25:13.451Z,-5.70
2019-01-23T04:27:42.999Z,-5.60
2019-01-23T04:30:23.175Z,-5.70
2019-01-23T04:32:52.583Z,-5.80
2019-01-23T04:35:21.719Z,-5.80
2019-01-23T04:37:50.849Z,-5.80
2019-01-23T04:40:20.319Z,-5.80
2019-01-23T04:42:49.431Z,-5.80
2019-01-23T04:45:18.583Z,-5.90
2019-01-23T04:47:48.018Z,-5.90
2019-01-23T04:50:17.623Z,-5.90
2019-01-23T04:52:52.803Z,-5.90
2019-01-23T04:55:23.118Z,-5.90
2019-01-23T04:57:53.077Z,-6.00
2019-01-23T05:00:24.086Z,-6.00
2019-01-23T05:02:53.340Z,-6.00
2019-01-23T05:05:22.647Z,-6.00
2019-01-23T05:07:53.478Z,-6.00
2019-01-23T05:10:23.210Z,-6.00
2019-01-23T05:12:52.546Z,-6.00
2019-01-23T05:15:27.507Z,-6.00
2019-01-23T05:18:00.755Z,-6.00
2019-01-23T05:20:30.086Z,-6.00
2019-01-23T05:23:01.725Z,-6.00
2019-01-23T05:25:31.145Z,-6.00
2019-01-23T05:28:06.357Z,-6.00
2019-01-23T05:30:35.836Z,-6.10
2019-01-23T05:33:04.889Z,-6.10
2019-01-23T05:35:34.282Z,-6.20
2019-01-23T05:38:07.615Z,-6.10
2019-01-23T05:40:38.723Z,-6.10
2019-01-23T05:43:08.321Z,-6.10
2019-01-23T05:45:37.513Z,-6.10
2019-01-23T05:48:07.294Z,-6.20
2019-01-23T05:50:37.619Z,-6.10
2019-01-23T05:53:06.947Z,-6.20
2019-01-23T05:55:45.191Z,-6.20
2019-01-23T05:58:14.343Z,-6.10
2019-01-23T06:00:46.273Z,-6.10
2019-01-23T06:03:15.126Z,-6.10
2019-01-23T06:05:44.182Z,-6.10
2019-01-23T06:08:13.262Z,-6.10
2019-01-23T06:10:42.473Z,-6.20
2019-01-23T06:13:11.427Z,-6.20
2019-01-23T06:15:40.647Z,-6.20
2019-01-23T06:18:09.914Z,-6.20
2019-01-23T06:21:07.129Z,-6.20
2019-01-23T06:23:35.961Z,-6.20
2019-01-23T06:26:07.775Z,-6.20
2019-01-23T06:28:56.420Z,-6.20
2019-01-23T06:31:26.861Z,-6.20
2019-01-23T06:33:58.127Z,-6.20
2019-01-23T06:36:30.155Z,-6.30
2019-01-23T06:40:24.292Z,-6.20
2019-01-23T06:46:32.243Z,-6.30
2019-01-23T06:49:12.766Z,-6.30
2019-01-23T06:51:43.768Z,-6.30
2019-01-23T06:54:14.527Z,-6.30
2019-01-23T06:56:46.811Z,-6.30
2019-01-23T06:59:19.199Z,-6.30
2019-01-23T07:01:50.196Z,-6.30
2019-01-23T07:04:20.125Z,-6.30
2019-01-23T07:06:57.705Z,-6.30
2019-01-23T07:09:27.343Z,-6.30
2019-01-23T07:12:05.577Z,-6.30
2019-01-23T07:14:35.065Z,-6.20
2019-01-23T07:17:26.000Z,-6.20
2019-01-23T07:19:59.924Z,-6.20
2019-01-23T07:22:46.593Z,-6.20
2019-01-23T07:25:22.772Z,-6.20
2019-01-23T07:27:55.198Z,-6.10
2019-01-23T07:30:38.654Z,-6.10
2019-01-23T07:33:11.807Z,-6.10
2019-01-23T07:35:45.345Z,-6.20
2019-01-23T07:38:17.331Z,-6.20
2019-01-23T07:40:46.553Z,-6.20
2019-01-23T07:43:22.681Z,-6.10
2019-01-23T07:45:51.979Z,-6.10
2019-01-23T07:48:28.527Z,-6.00
2019-01-23T07:51:02.176Z,-6.00
2019-01-23T07:53:40.338Z,-5.80
2019-01-23T07:56:11.176Z,-5.90
2019-01-23T07:58:42.183Z,-5.80
2019-01-23T08:01:11.960Z,-5.80
2019-01-23T08:03:46.167Z,-5.70
2019-01-23T08:06:15.601Z,-5.70
2019-01-23T08:08:45.118Z,-5.70
2019-01-23T08:11:16.745Z,-5.60
2019-01-23T08:13:47.387Z,-5.50
2019-01-23T08:16:18.885Z,-5.50
2019-01-23T08:18:49.925Z,-5.40
2019-01-23T08:21:24.427Z,-5.40
2019-01-23T08:24:07.312Z,-5.40
2019-01-23T08:26:48.925Z,-5.30
2019-01-23T08:29:18.902Z,-5.20
2019-01-23T08:31:53.426Z,-5.10
2019-01-23T08:34:26.737Z,-5.10
2019-01-23T08:37:09.698Z,-4.90
2019-01-23T08:39:36.543Z,-4.80
2019-01-23T08:42:07.507Z,-4.70
2019-01-23T08:44:39.160Z,-4.60
2019-01-23T08:47:26.542Z,-4.30
2019-01-23T08:50:00.673Z,-3.60
2019-01-23T08:52:37.049Z,-3.10
2019-01-23T08:55:33.772Z,-3.10
2019-01-23T08:58:04.334Z,-2.80
2019-01-23T09:00:46.792Z,-2.30
2019-01-23T09:03:34.979Z,-2.40
2019-01-23T09:06:11.442Z,-2.60
2019-01-23T09:08:49.793Z,-2.20
2019-01-23T09:11:35.563Z,-1.80
2019-01-23T09:14:18.851Z,-1.80
2019-01-23T09:16:53.505Z,-1.60
2019-01-23T09:19:26.322Z,-1.70
2019-01-23T09:22:09.342Z,-1.80
2019-01-23T09:24:44.074Z,-1.60
2019-01-23T09:27:35.997Z,-1.00
2019-01-23T09:30:30.034Z,-1.00
2019-01-23T09:33:54.693Z,-1.00
2019-01-23T09:37:15.887Z,-1.00
2019-01-23T09:40:31.143Z,-0.50
2019-01-23T09:43:32.124Z,-0.30
2019-01-23T09:46:36.237Z,0.00
2019-01-23T09:49:56.945Z,0.50
2019-01-23T09:53:22.387Z,0.20
2019-01-23T09:56:05.246Z,0.00
2019-01-23T09:59:43.356Z,0.70
2019-01-23T10:02:24.343Z,1.00
2019-01-23T10:08:36.238Z,0.80
2019-01-23T10:12:06.168Z,1.30
2019-01-23T10:15:31.076Z,1.90
2019-01-23T10:18:26.889Z,2.40
2019-01-23T10:25:35.752Z,2.70
2019-01-23T10:28:43.524Z,2.30
2019-01-23T10:35:29.730Z,1.70
2019-01-23T10:38:37.330Z,2.60
2019-01-23T10:45:59.214Z,1.90
2019-01-23T10:49:40.239Z,2.50
2019-01-23T10:52:58.465Z,2.60
2019-01-23T11:06:58.201Z,2.40
2019-01-23T11:10:20.228Z,2.80
2019-01-23T11:16:52.746Z,3.20
2019-01-23T11:20:24.996Z,2.80
2019-01-23T11:27:23.271Z,1.70
2019-01-23T11:32:49.502Z,1.20
2019-01-23T11:42:14.198Z,2.00
2019-01-23T11:49:09.445Z,1.60
2019-01-23T12:07:08.583Z,1.40
2019-01-23T12:23:58.214Z,1.30
2019-01-23T12:32:32.979Z,0.30
2019-01-23T12:36:21.313Z,0.10
2019-01-23T12:40:00.001Z,0.00
2019-01-23T12:46:55.660Z,-0.60
2019-01-23T12:50:17.769Z,-0.60
2019-01-23T12:53:31.871Z,-0.90
2019-01-23T12:57:37.919Z,-0.80
2019-01-23T13:00:49.389Z,-0.80
2019-01-23T13:10:24.080Z,-0.90
2019-01-23T13:13:46.966Z,-0.80
2019-01-23T13:16:54.679Z,-0.80
2019-01-23T13:21:23.854Z,-1.10
2019-01-23T13:29:14.201Z,-1.10
2019-01-23T13:32:59.643Z,-0.30
2019-01-23T13:35:54.541Z,0.00
2019-01-23T13:39:39.293Z,-0.60
2019-01-23T13:50:29.885Z,-0.90
2019-01-23T13:54:03.897Z,-0.70
2019-01-23T13:57:14.833Z,-0.70
2019-01-23T14:00:56.804Z,-0.60
2019-01-23T14:03:38.089Z,-1.30
2019-01-23T14:06:55.895Z,-1.60
2019-01-23T14:13:27.540Z,-1.80
2019-01-23T14:16:37.684Z,-1.80
2019-01-23T14:20:02.206Z,-2.00
2019-01-23T14:33:13.023Z,-2.30
2019-01-23T14:36:27.823Z,-2.40
2019-01-23T14:40:10.247Z,-2.70
2019-01-23T14:43:05.089Z,-2.80
2019-01-23T14:46:20.465Z,-3.10
2019-01-23T14:49:17.301Z,-3.30
2019-01-23T14:52:13.422Z,-3.50
2019-01-23T14:56:21.503Z,-3.70
2019-01-23T14:58:03.713Z,-3.90
2019-01-23T15:01:19.754Z,-4.00
2019-01-23T15:04:00.560Z,-4.20
2019-01-23T15:06:45.002Z,-4.60
2019-01-23T15:09:34.914Z,-4.90
2019-01-23T15:12:32.373Z,-4.90
2019-01-23T15:15:19.869Z,-5.00
2019-01-23T15:18:00.535Z,-4.80
2019-01-23T15:24:21.492Z,-4.80
2019-01-23T15:27:17.454Z,-4.90
2019-01-23T15:30:08.083Z,-5.10
2019-01-23T15:32:43.546Z,-5.20
2019-01-23T15:35:14.103Z,-5.20
2019-01-23T15:37:55.251Z,-5.30
2019-01-23T15:41:25.817Z,-5.40
2019-01-23T15:43:54.011Z,-5.50
2019-01-23T15:46:23.673Z,-5.50
2019-01-23T15:48:53.317Z,-5.70
2019-01-23T15:51:22.911Z,-5.80
2019-01-23T15:53:52.418Z,-5.70
2019-01-23T15:56:22.801Z,-5.80
2019-01-23T15:58:52.916Z,-5.90
2019-01-23T16:01:23.083Z,-5.70
2019-01-23T16:03:52.322Z,-5.80
2019-01-23T16:06:21.622Z,-5.90
2019-01-23T16:08:50.855Z,-5.80
2019-01-23T16:11:20.478Z,-5.80
2019-01-23T16:14:04.148Z,-5.70
2019-01-23T16:16:44.518Z,-5.60
2019-01-23T16:21:23.895Z,-5.60
2019-01-23T16:22:21.543Z,-5.70
2019-01-23T16:24:53.710Z,-5.70
2019-01-23T16:27:26.406Z,-5.70
2019-01-23T16:29:59.163Z,-5.70
2019-01-23T16:32:31.628Z,-5.60
2019-01-23T16:35:04.714Z,-5.50
2019-01-23T16:37:39.679Z,-5.50
2019-01-23T16:40:12.056Z,-5.40
2019-01-23T16:42:42.977Z,-5.40
2019-01-23T16:45:15.142Z,-5.60
2019-01-23T16:47:47.294Z,-5.60
2019-01-23T16:50:18.852Z,-5.60
2019-01-23T16:52:48.245Z,-5.50
2019-01-23T16:58:07.613Z,-5.50
2019-01-23T17:00:36.947Z,-5.30
2019-01-23T17:03:06.920Z,-5.20
2019-01-23T17:05:39.321Z,-5.20
2019-01-23T17:08:14.792Z,-5.20
2019-01-23T17:10:48.408Z,-5.20
2019-01-23T17:13:26.805Z,-5.10
2019-01-23T17:15:56.840Z,-5.10
2019-01-23T17:18:27.097Z,-5.10
2019-01-23T17:20:58.686Z,-5.00
2019-01-23T17:23:32.391Z,-5.00
2019-01-23T17:26:01.805Z,-4.90
2019-01-23T17:28:34.627Z,-4.90
2019-01-23T17:31:12.654Z,-4.90
2019-01-23T17:33:44.585Z,-4.90
2019-01-23T17:36:14.987Z,-4.90
2019-01-23T17:38:44.810Z,-4.80
2019-01-23T17:41:14.759Z,-4.90
2019-01-23T17:43:44.206Z,-4.90
2019-01-23T17:46:13.431Z,-4.80
2019-01-23T17:48:44.499Z,-4.80
2019-01-23T17:51:14.240Z,-4.80
2019-01-23T17:53:43.576Z,-4.80
2019-01-23T17:56:13.114Z,-4.70
2019-01-23T17:58:45.010Z,-4.70
2019-01-23T18:01:15.007Z,-4.70
2019-01-23T18:04:08.739Z,-4.60
2019-01-23T18:06:42.473Z,-4.70
2019-01-23T18:09:15.737Z,-4.70
2019-01-23T18:11:45.687Z,-4.70
2019-01-23T18:14:25.130Z,-4.60
2019-01-23T18:17:02.305Z,-4.70
2019-01-23T18:19:38.409Z,-4.70
2019-01-23T18:22:09.692Z,-4.70
2019-01-23T18:24:43.325Z,-4.60
2019-01-23T18:27:19.614Z,-4.60
2019-01-23T18:29:55.449Z,-4.60
2019-01-23T18:33:00.852Z,-4.60
2019-01-23T18:36:11.673Z,-4.50
2019-01-23T18:38:54.528Z,-4.50
2019-01-23T18:42:04.153Z,-4.40
2019-01-23T18:44:41.228Z,-4.50
2019-01-23T18:47:37.572Z,-4.50
2019-01-23T18:50:54.143Z,-4.40
2019-01-23T18:53:31.845Z,-4.50
2019-01-23T18:56:01.420Z,-4.50
2019-01-23T18:58:30.706Z,-4.50
2019-01-23T19:01:01.572Z,-4.40
2019-01-23T19:03:30.940Z,-4.40
2019-01-23T19:06:00.253Z,-4.30
2019-01-23T19:08:32.348Z,-4.40
2019-01-23T19:11:01.932Z,-4.30
2019-01-23T19:13:32.350Z,-4.30
2019-01-23T19:16:01.992Z,-4.30
2019-01-23T19:18:31.402Z,-4.30
2019-01-23T19:21:01.110Z,-4.30
2019-01-23T19:23:58.257Z,-4.40
2019-01-23T19:27:07.554Z,-4.40
2019-01-23T19:29:37.968Z,-4.50
2019-01-23T19:32:09.768Z,-4.60
2019-01-23T19:34:47.866Z,-4.60
2019-01-23T19:37:24.187Z,-4.60
2019-01-23T19:39:54.752Z,-4.60
2019-01-23T19:42:33.567Z,-4.60
2019-01-23T19:45:04.873Z,-4.70
2019-01-23T19:47:38.389Z,-4.80
2019-01-23T19:50:13.031Z,-4.90
2019-01-23T19:52:46.674Z,-4.90
2019-01-23T19:55:21.206Z,-5.00
2019-01-23T19:57:53.924Z,-5.00
2019-01-23T20:00:29.730Z,-5.10
2019-01-23T20:03:02.504Z,-5.20
2019-01-23T20:05:34.800Z,-5.20
2019-01-23T20:08:04.384Z,-5.30
2019-01-23T20:10:33.789Z,-5.30
2019-01-23T20:13:06.270Z,-5.40
2019-01-23T20:15:36.553Z,-5.50
2019-01-23T20:18:10.200Z,-5.70
2019-01-23T20:20:43.339Z,-5.70
2019-01-23T20:23:18.542Z,-5.80
2019-01-23T20:25:49.928Z,-5.90
2019-01-23T20:28:19.767Z,-5.90
2019-01-23T20:30:49.252Z,-5.90
2019-01-23T20:33:27.681Z,-6.00
2019-01-23T20:35:53.245Z,-5.90
2019-01-23T20:38:25.961Z,-6.00
2019-01-23T20:40:56.769Z,-6.10
2019-01-23T20:43:31.703Z,-6.20
2019-01-23T20:46:06.503Z,-6.20
2019-01-23T20:48:37.858Z,-6.20
2019-01-23T20:51:07.189Z,-6.30
2019-01-23T20:53:39.578Z,-6.40
2019-01-23T20:56:14.323Z,-6.40
2019-01-23T20:58:43.589Z,-6.50
2019-01-23T21:01:14.473Z,-6.60
2019-01-23T21:03:48.888Z,-6.60
2019-01-23T21:06:18.123Z,-6.60
2019-01-23T21:08:49.012Z,-6.70
2019-01-23T21:11:18.492Z,-6.70
2019-01-23T21:13:47.753Z,-6.70
2019-01-23T21:16:16.886Z,-6.70
2019-01-23T21:18:46.796Z,-6.80
2019-01-23T21:21:16.246Z,-6.90
2019-01-23T21:23:45.347Z,-7.00
2019-01-23T21:26:17.098Z,-7.10
2019-01-23T21:28:46.404Z,-7.20
2019-01-23T21:31:15.625Z,-7.20
2019-01-23T21:33:45.158Z,-7.30
2019-01-23T21:36:15.975Z,-7.30
2019-01-23T21:38:46.308Z,-7.30
2019-01-23T21:41:18.634Z,-7.40
2019-01-23T21:43:47.909Z,-7.40
2019-01-23T21:46:17.253Z,-7.40
2019-01-23T21:48:46.802Z,-7.40
2019-01-23T21:51:17.057Z,-7.50
2019-01-23T21:53:46.398Z,-7.60
2019-01-23T21:56:25.366Z,-7.70
2019-01-23T21:58:58.435Z,-7.70
2019-01-23T22:01:27.480Z,-7.90
2019-01-23T22:03:56.405Z,-7.90
2019-01-23T22:06:25.324Z,-7.90
2019-01-23T22:09:09.091Z,-7.90
2019-01-23T22:12:10.238Z,-7.90
2019-01-23T22:14:45.585Z,-8.00
2019-01-23T22:17:29.605Z,-8.10
2019-01-23T22:20:03.871Z,-8.00
2019-01-23T22:22:45.445Z,-8.00
2019-01-23T22:25:22.246Z,-8.00
2019-01-23T22:28:07.312Z,-8.10
2019-01-23T22:30:36.449Z,-8.10
2019-01-23T22:33:06.626Z,-8.10
2019-01-23T22:35:35.892Z,-8.20
2019-01-23T22:38:06.191Z,-8.30
2019-01-23T22:40:45.850Z,-8.30
2019-01-23T22:43:16.332Z,-8.30
2019-01-23T22:45:56.835Z,-8.40
2019-01-23T22:48:37.848Z,-8.40
2019-01-23T22:51:19.311Z,-8.50
2019-01-23T22:53:51.441Z,-8.30
2019-01-23T22:56:23.123Z,-8.20
2019-01-23T22:58:52.401Z,-8.30
2019-01-23T23:01:27.352Z,-8.30
2019-01-23T23:04:02.960Z,-8.30
2019-01-23T23:06:27.282Z,-8.40
2019-01-23T23:08:56.223Z,-8.40
2019-01-23T23:11:25.224Z,-8.40
2019-01-23T23:13:54.309Z,-8.30
2019-01-23T23:16:23.465Z,-8.30
2019-01-23T23:18:52.308Z,-8.30
2019-01-23T23:21:21.106Z,-8.20
2019-01-23T23:23:50.016Z,-8.20
2019-01-23T23:26:18.807Z,-8.10
2019-01-23T23:28:47.680Z,-8.10
2019-01-23T23:31:16.540Z,-8.00
2019-01-23T23:33:45.559Z,-7.90
2019-01-23T23:36:14.370Z,-7.80
2019-01-23T23:38:43.204Z,-7.90
2019-01-23T23:41:11.995Z,-7.80
2019-01-23T23:43:41.006Z,-7.80
2019-01-23T23:46:10.015Z,-7.70
2019-01-23T23:48:38.870Z,-7.60
2019-01-23T23:51:07.683Z,-7.60
2019-01-23T23:53:36.606Z,-7.50
2019-01-23T23:56:05.604Z,-7.40
2019-01-23T23:58:34.513Z,-7.30
